Time;durP1;ratioP1;P1;durP2;ratioP2;P2;SDS_P1;SDS_P2;PMS_P1;PMS_P2;Temp;Humidity;BMP_temperature;BMP_pressure;BME280_temperature;BME280_humidity;BME280_pressure;Samples;Min_cycle;Max_cycle;Signal;HPM_P1;HPM_P2
2021/11/29 00:01:11;;;;;;;;;;;;;;;21.25;35.72;100770.34;7295463;19;153126;-51
2021/11/29 00:03:38;;;;;;;;;;;;;;;21.23;35.68;100778.25;7288867;19;151877;-51
2021/11/29 00:06:05;;;;;;;;;;;;;;;21.22;35.58;100776.59;7286727;19;152645;-50
2021/11/29 00:08:32;;;;;;;;;;;;;;;21.21;35.87;100784.19;7287752;19;153985;-50
2021/11/29 00:10:59;;;;;;;;;;;;;;;21.19;35.85;100785.66;7289679;19;152040;-50
2021/11/29 00:13:26;;;;;;;;;;;;;;;21.17;35.89;100785.97;7288847;19;152528;-50
2021/11/29 00:15:53;;;;;;;;;;;;;;;21.17;36.01;100787.94;7286420;19;153580;-50
2021/11/29 00:18:19;;;;;;;;;;;;;;;21.15;35.69;100784.63;7286896;19;152010;-50
2021/11/29 00:20:46;;;;;;;;;;;;;;;21.12;35.70;100779.63;7286610;19;152573;-51
2021/11/29 00:23:14;;;;;;;;;;;;;;;21.09;35.95;100781.06;7295796;19;153214;-51
2021/11/29 00:25:42;;;;;;;;;;;;;;;21.08;36.02;100784.19;7289048;19;153725;-50
2021/11/29 00:28:09;;;;;;;;;;;;;;;21.04;36.24;100766.31;7288114;19;153290;-50
2021/11/29 00:30:37;;;;;;;;;;;;;;;21.02;36.24;100768.63;7289523;19;151915;-50
2021/11/29 00:33:03;;;;;;;;;;;;;;;20.98;36.19;100776.84;7289313;19;153370;-51
2021/11/29 00:35:30;;;;;;;;;;;;;;;20.97;36.30;100775.19;7287734;19;154191;-51
2021/11/29 00:37:57;;;;;;;;;;;;;;;20.92;36.13;100768.84;7287215;19;152241;-50
2021/11/29 00:40:24;;;;;;;;;;;;;;;20.88;36.16;100776.25;7286545;19;152596;-50
2021/11/29 00:42:51;;;;;;;;;;;;;;;20.88;36.71;100777.06;7287856;19;153654;-50
2021/11/29 00:45:17;;;;;;;;;;;;;;;20.82;36.69;100776.34;7296951;19;152129;-51
2021/11/29 00:47:44;;;;;;;;;;;;;;;20.81;37.08;100782.25;7287182;19;153376;-51
2021/11/29 00:50:11;;;;;;;;;;;;;;;20.78;36.81;100785.72;7288108;19;151790;-51
2021/11/29 00:52:40;;;;;;;;;;;;;;;20.76;37.12;100793.59;7288534;19;152549;-51
2021/11/29 00:55:07;;;;;;;;;;;;;;;20.76;37.27;100790.78;7287122;19;153128;-51
2021/11/29 00:57:34;;;;;;;;;;;;;;;20.71;37.24;100794.56;7288935;19;151883;-51
2021/11/29 01:00:01;;;;;;;;;;;;;;;20.66;37.17;100800.28;7286827;19;152600;-50
2021/11/29 01:02:28;;;;;;;;;;;;;;;20.59;37.05;100799.88;7287363;19;154022;-50
2021/11/29 01:04:54;;;;;;;;;;;;;;;20.55;37.29;100812.03;7288029;19;152372;-50
2021/11/29 01:07:21;;;;;;;;;;;;;;;20.56;37.28;100808.09;7294008;19;152616;-50
2021/11/29 01:09:48;;;;;;;;;;;;;;;20.49;37.47;100811.28;7286839;19;151709;-50
2021/11/29 01:12:15;;;;;;;;;;;;;;;20.50;37.27;100812.13;7288516;19;152700;-50
2021/11/29 01:14:42;;;;;;;;;;;;;;;20.43;37.68;100815.38;7286710;19;152598;-50
2021/11/29 01:17:11;;;;;;;;;;;;;;;20.39;37.47;100811.53;7287254;19;151875;-51
2021/11/29 01:19:38;;;;;;;;;;;;;;;20.37;37.47;100819.41;7287125;19;153194;-51
2021/11/29 01:22:05;;;;;;;;;;;;;;;20.31;37.66;100832.69;7287407;19;153262;-51
2021/11/29 01:24:32;;;;;;;;;;;;;;;20.24;37.51;100835.06;7285986;19;151699;-50
2021/11/29 01:26:59;;;;;;;;;;;;;;;20.15;38.14;100839.72;7294117;19;151917;-50
2021/11/29 01:29:25;;;;;;;;;;;;;;;20.13;37.84;100843.94;7285976;19;151581;-50
2021/11/29 01:31:52;;;;;;;;;;;;;;;20.07;38.04;100831.19;7281489;19;152863;-50
2021/11/29 01:34:19;;;;;;;;;;;;;;;20.02;38.02;100832.09;7283447;19;153252;-50
2021/11/29 01:36:46;;;;;;;;;;;;;;;19.92;37.90;100829.47;7283523;19;151912;-50
2021/11/29 01:39:13;;;;;;;;;;;;;;;19.89;38.14;100835.72;7279723;19;152458;-49
2021/11/29 01:41:41;;;;;;;;;;;;;;;19.82;38.23;100830.47;7282895;19;154875;-49
2021/11/29 01:44:07;;;;;;;;;;;;;;;19.78;37.96;100829.44;7284296;19;152069;-50
2021/11/29 01:46:34;;;;;;;;;;;;;;;19.73;38.34;100840.72;7285264;19;152603;-50
2021/11/29 01:49:01;;;;;;;;;;;;;;;19.69;37.96;100841.66;7291155;19;154239;-50
2021/11/29 01:51:28;;;;;;;;;;;;;;;19.65;38.14;100840.59;7285016;19;153602;-50
2021/11/29 01:53:55;;;;;;;;;;;;;;;19.59;37.86;100850.22;7280113;19;153797;-50
2021/11/29 01:56:22;;;;;;;;;;;;;;;19.54;38.03;100845.53;7283932;19;151865;-50
2021/11/29 01:58:48;;;;;;;;;;;;;;;19.50;37.86;100847.25;7284413;19;152323;-50
2021/11/29 02:01:16;;;;;;;;;;;;;;;19.48;37.89;100855.16;7278272;19;152485;-50
2021/11/29 02:03:45;;;;;;;;;;;;;;;19.43;38.02;100858.00;7284846;19;152406;-49
2021/11/29 02:06:11;;;;;;;;;;;;;;;19.41;37.94;100855.50;7283198;19;153143;-49
2021/11/29 02:08:38;;;;;;;;;;;;;;;19.38;38.25;100856.13;7285008;19;152682;-50
2021/11/29 02:11:05;;;;;;;;;;;;;;;19.32;38.24;100848.06;7292572;19;152024;-50
2021/11/29 02:13:32;;;;;;;;;;;;;;;19.26;38.19;100855.72;7284540;19;153071;-49
2021/11/29 02:15:59;;;;;;;;;;;;;;;19.22;38.36;100865.03;7285699;19;151692;-50
2021/11/29 02:18:28;;;;;;;;;;;;;;;19.18;38.36;100859.19;7286139;19;153107;-50
2021/11/29 02:20:58;;;;;;;;;;;;;;;19.17;38.62;100868.72;7281773;19;153592;-50
2021/11/29 02:23:25;;;;;;;;;;;;;;;19.13;38.76;100867.66;7282727;19;152363;-49
2021/11/29 02:25:52;;;;;;;;;;;;;;;19.11;38.62;100869.94;7283089;19;153343;-50
2021/11/29 02:28:20;;;;;;;;;;;;;;;19.06;38.72;100882.06;7283275;19;152241;-50
2021/11/29 02:30:46;;;;;;;;;;;;;;;19.02;38.41;100881.00;7284061;19;151711;-50
2021/11/29 02:33:13;;;;;;;;;;;;;;;19.00;38.85;100896.41;7290772;19;153643;-49
2021/11/29 02:35:40;;;;;;;;;;;;;;;18.99;38.88;100891.94;7284964;19;152207;-50
2021/11/29 02:38:07;;;;;;;;;;;;;;;18.94;38.79;100900.41;7283007;19;153448;-50
2021/11/29 02:40:34;;;;;;;;;;;;;;;18.91;38.83;100899.03;7280810;19;154316;-50
2021/11/29 02:43:01;;;;;;;;;;;;;;;18.90;38.85;100900.16;7283295;19;151918;-50
2021/11/29 02:45:27;;;;;;;;;;;;;;;18.85;39.00;100902.22;7283912;19;152202;-50
2021/11/29 02:47:54;;;;;;;;;;;;;;;18.81;38.88;100907.53;7281959;19;154129;-50
2021/11/29 02:50:21;;;;;;;;;;;;;;;18.77;38.79;100906.47;7283599;19;151502;-50
2021/11/29 02:52:47;;;;;;;;;;;;;;;18.72;38.86;100909.34;7283921;19;153216;-50
2021/11/29 02:55:14;;;;;;;;;;;;;;;18.70;39.27;100910.78;7289495;19;154411;-50
2021/11/29 02:57:41;;;;;;;;;;;;;;;18.65;39.05;100903.28;7283554;19;153308;-50
2021/11/29 03:00:09;;;;;;;;;;;;;;;18.61;39.06;100905.00;7281275;19;153517;-50
2021/11/29 03:02:35;;;;;;;;;;;;;;;18.58;39.01;100903.59;7283587;19;152496;-50
2021/11/29 03:05:06;;;;;;;;;;;;;;;18.56;39.16;100902.25;7282689;19;152894;-50
2021/11/29 03:07:33;;;;;;;;;;;;;;;18.54;39.49;100904.50;7281374;19;153740;-50
2021/11/29 03:10:00;;;;;;;;;;;;;;;18.49;39.20;100910.09;7282819;19;151628;-49
2021/11/29 03:12:27;;;;;;;;;;;;;;;18.48;39.38;100916.84;7284905;19;153456;-50
2021/11/29 03:14:53;;;;;;;;;;;;;;;18.43;39.17;100917.75;7282841;19;153361;-49
2021/11/29 03:17:20;;;;;;;;;;;;;;;18.43;39.40;100914.09;7292179;19;151947;-49
2021/11/29 03:19:47;;;;;;;;;;;;;;;18.38;39.35;100911.34;7281608;19;152020;-50
2021/11/29 03:22:14;;;;;;;;;;;;;;;18.34;39.61;100915.88;7283847;19;151912;-50
2021/11/29 03:24:46;;;;;;;;;;;;;;;18.32;39.42;100918.97;7282389;19;153297;-50
2021/11/29 03:27:15;;;;;;;;;;;;;;;18.28;39.65;100928.22;7282602;19;153582;-50
2021/11/29 03:29:43;;;;;;;;;;;;;;;18.24;39.42;100922.41;7283192;19;151919;-50
2021/11/29 03:32:11;;;;;;;;;;;;;;;18.20;39.59;100930.53;7283272;19;153242;-50
2021/11/29 03:34:38;;;;;;;;;;;;;;;18.19;39.42;100936.41;7286026;19;154045;-50
2021/11/29 03:37:05;;;;;;;;;;;;;;;18.17;39.71;100930.28;7296750;19;151823;-50
2021/11/29 03:39:32;;;;;;;;;;;;;;;18.15;39.65;100927.78;7288065;19;151906;-50
2021/11/29 03:42:00;;;;;;;;;;;;;;;18.12;39.58;100927.53;7287047;19;152493;-50
2021/11/29 03:44:26;;;;;;;;;;;;;;;18.09;39.55;100925.31;7286459;19;153192;-50
2021/11/29 03:46:54;;;;;;;;;;;;;;;18.06;39.87;100921.16;7288447;19;153380;-50
2021/11/29 03:49:22;;;;;;;;;;;;;;;18.03;39.63;100941.31;7288793;19;151492;-50
2021/11/29 03:51:49;;;;;;;;;;;;;;;18.00;40.14;100941.88;7290393;19;152635;-49
2021/11/29 03:54:16;;;;;;;;;;;;;;;17.98;39.87;100944.16;7287743;19;152606;-50
2021/11/29 03:56:43;;;;;;;;;;;;;;;17.97;39.88;100947.22;7289430;19;151877;-50
2021/11/29 03:59:10;;;;;;;;;;;;;;;17.94;40.21;100951.47;7296204;19;152602;-50
2021/11/29 04:01:36;;;;;;;;;;;;;;;17.90;40.19;100955.13;7287949;19;153795;-50
2021/11/29 04:04:04;;;;;;;;;;;;;;;17.87;40.05;100953.72;7289256;19;153360;-50
2021/11/29 04:06:31;;;;;;;;;;;;;;;17.85;40.38;100958.78;7285634;19;153289;-50
2021/11/29 04:08:57;;;;;;;;;;;;;;;17.82;40.38;100961.31;7287989;19;151968;-50
2021/11/29 04:11:24;;;;;;;;;;;;;;;17.81;40.01;100966.06;7287213;19;153136;-50
2021/11/29 04:13:51;;;;;;;;;;;;;;;17.78;40.10;100970.28;7287177;19;153559;-50
2021/11/29 04:16:18;;;;;;;;;;;;;;;17.77;40.51;100973.34;7289599;19;151984;-50
2021/11/29 04:18:45;;;;;;;;;;;;;;;17.75;40.47;100975.63;7288222;19;152646;-51
2021/11/29 04:21:14;;;;;;;;;;;;;;;17.73;40.52;100977.84;7293408;19;153900;-49
2021/11/29 04:23:44;;;;;;;;;;;;;;;17.69;40.73;100974.81;7287284;19;153429;-51
2021/11/29 04:26:15;;;;;;;;;;;;;;;17.72;40.70;100981.75;7286662;19;153896;-50
2021/11/29 04:28:42;;;;;;;;;;;;;;;17.78;40.61;100981.47;7288212;19;152600;-50
2021/11/29 04:31:08;;;;;;;;;;;;;;;17.87;40.83;100992.00;7288398;19;152615;-51
2021/11/29 04:33:35;;;;;;;;;;;;;;;17.90;41.07;100995.06;7286643;19;154883;-51
2021/11/29 04:36:03;;;;;;;;;;;;;;;17.95;41.20;100997.81;7287740;19;151854;-51
2021/11/29 04:38:31;;;;;;;;;;;;;;;18.00;41.08;100999.75;7286971;19;151675;-50
2021/11/29 04:40:57;;;;;;;;;;;;;;;18.05;41.18;101002.50;7284656;19;154023;-50
2021/11/29 04:43:24;;;;;;;;;;;;;;;18.11;41.16;100998.56;7293599;19;152283;-51
2021/11/29 04:45:51;;;;;;;;;;;;;;;18.16;41.81;101002.16;7283691;19;153933;-51
2021/11/29 04:48:18;;;;;;;;;;;;;;;18.22;41.95;101000.97;7287084;19;151919;-51
2021/11/29 04:50:45;;;;;;;;;;;;;;;18.29;42.14;101003.47;7287966;19;153024;-52
2021/11/29 04:53:12;;;;;;;;;;;;;;;18.37;41.98;101004.78;7286010;19;156609;-51
2021/11/29 04:55:38;;;;;;;;;;;;;;;18.43;42.12;101009.22;7282800;19;152226;-51
2021/11/29 04:58:05;;;;;;;;;;;;;;;18.50;41.71;100998.50;7286364;19;155145;-52
2021/11/29 05:00:32;;;;;;;;;;;;;;;18.57;41.51;101004.66;7285107;19;153958;-52
2021/11/29 05:02:59;;;;;;;;;;;;;;;18.62;41.56;101001.81;7287227;19;151544;-51
2021/11/29 05:05:26;;;;;;;;;;;;;;;18.70;41.13;100998.38;7291771;19;152737;-50
2021/11/29 05:08:13;;;;;;;;;;;;;;;18.77;41.54;101009.19;7286632;19;151949;-51
2021/11/29 05:10:39;;;;;;;;;;;;;;;18.84;41.09;101013.34;7284209;19;152594;-51
2021/11/29 05:13:06;;;;;;;;;;;;;;;18.90;40.81;101019.69;7286169;19;154610;-51
2021/11/29 05:15:33;;;;;;;;;;;;;;;18.96;40.63;101021.31;7285625;19;152008;-51
2021/11/29 05:18:00;;;;;;;;;;;;;;;19.01;40.75;101024.06;7286075;19;152127;-51
2021/11/29 05:20:27;;;;;;;;;;;;;;;19.06;40.80;101027.66;7283829;19;154011;-52
2021/11/29 05:22:53;;;;;;;;;;;;;;;19.12;40.83;101025.66;7286114;19;152027;-51
2021/11/29 05:25:20;;;;;;;;;;;;;;;19.16;40.39;101034.28;7284706;19;153309;-51
2021/11/29 05:27:47;;;;;;;;;;;;;;;19.20;40.85;101041.78;7292114;19;152326;-51
2021/11/29 05:30:14;;;;;;;;;;;;;;;19.24;40.36;101039.22;7285691;19;152424;-51
2021/11/29 05:32:41;;;;;;;;;;;;;;;19.29;40.28;101040.00;7285258;19;153201;-51
2021/11/29 05:35:08;;;;;;;;;;;;;;;19.34;40.09;101037.16;7286157;19;151792;-51
2021/11/29 05:37:34;;;;;;;;;;;;;;;19.39;40.10;101039.06;7286022;19;152429;-51
2021/11/29 05:40:02;;;;;;;;;;;;;;;19.43;40.21;101048.53;7284810;19;153705;-49
2021/11/29 05:42:41;;;;;;;;;;;;;;;19.46;39.59;101051.59;7282882;19;151626;-49
2021/11/29 05:45:09;;;;;;;;;;;;;;;19.51;39.97;101059.94;7285794;19;152609;-52
2021/11/29 05:47:36;;;;;;;;;;;;;;;19.57;39.69;101065.50;7292123;19;154230;-51
2021/11/29 05:50:04;;;;;;;;;;;;;;;19.59;39.76;101072.47;7285913;19;152759;-51
2021/11/29 05:52:32;;;;;;;;;;;;;;;19.65;39.64;101087.25;7284559;19;153901;-51
2021/11/29 05:54:59;;;;;;;;;;;;;;;19.69;39.31;101085.50;7285606;19;151864;-51
2021/11/29 05:57:25;;;;;;;;;;;;;;;19.72;39.55;101080.13;7284452;19;152040;-52
2021/11/29 05:59:52;;;;;;;;;;;;;;;19.76;39.33;101077.59;7281095;19;153833;-51
2021/11/29 06:02:19;;;;;;;;;;;;;;;19.79;39.13;101083.44;7283037;19;151991;-52
2021/11/29 06:04:46;;;;;;;;;;;;;;;19.83;39.03;101087.28;7284092;19;152406;-51
2021/11/29 06:07:12;;;;;;;;;;;;;;;19.86;38.91;101092.28;7283417;19;152251;-51
2021/11/29 06:09:39;;;;;;;;;;;;;;;19.91;39.19;101094.19;7292427;19;151819;-52
2021/11/29 06:12:06;;;;;;;;;;;;;;;19.93;39.36;101095.59;7283237;19;153786;-52
2021/11/29 06:14:35;;;;;;;;;;;;;;;19.98;39.11;101091.88;7283154;19;151963;-50
2021/11/29 06:17:02;;;;;;;;;;;;;;;20.03;39.35;101093.78;7284828;19;152018;-49
2021/11/29 06:19:29;;;;;;;;;;;;;;;20.06;38.72;101090.34;7282690;19;153499;-50
2021/11/29 06:21:55;;;;;;;;;;;;;;;20.09;38.93;101099.00;7283073;19;151815;-50
2021/11/29 06:24:22;;;;;;;;;;;;;;;20.12;38.84;101095.59;7284945;19;152523;-50
2021/11/29 06:26:49;;;;;;;;;;;;;;;20.15;38.94;101102.56;7283242;19;154282;-50
2021/11/29 06:29:15;;;;;;;;;;;;;;;20.18;38.42;101108.41;7283136;19;152234;-50
2021/11/29 06:31:42;;;;;;;;;;;;;;;20.21;38.55;101101.38;7291157;19;153518;-50
2021/11/29 06:34:09;;;;;;;;;;;;;;;20.24;38.48;101111.97;7284081;19;151867;-50
2021/11/29 06:36:36;;;;;;;;;;;;;;;20.27;38.37;101115.00;7284205;19;152601;-50
2021/11/29 06:39:03;;;;;;;;;;;;;;;20.30;38.19;101122.03;7282718;19;154175;-52
2021/11/29 06:41:30;;;;;;;;;;;;;;;20.32;38.12;101117.78;7282979;19;151879;-50
2021/11/29 06:43:57;;;;;;;;;;;;;;;20.37;38.63;101133.69;7283419;19;152968;-50
2021/11/29 06:46:23;;;;;;;;;;;;;;;20.39;38.80;101132.28;7282010;19;153359;-50
2021/11/29 06:48:50;;;;;;;;;;;;;;;20.40;38.29;101131.13;7284457;19;151880;-50
2021/11/29 06:51:17;;;;;;;;;;;;;;;20.42;38.74;101139.25;7282994;19;152366;-50
2021/11/29 06:53:44;;;;;;;;;;;;;;;20.46;38.63;101142.28;7290646;19;154647;-53
2021/11/29 06:56:11;;;;;;;;;;;;;;;20.48;38.31;101140.00;7283374;19;151654;-50
2021/11/29 06:58:37;;;;;;;;;;;;;;;20.49;38.47;101148.09;7282642;19;154631;-50
2021/11/29 07:01:04;;;;;;;;;;;;;;;20.51;37.99;101137.44;7279467;19;152160;-50
2021/11/29 07:03:32;;;;;;;;;;;;;;;20.53;38.15;101145.56;7283145;19;153330;-50
2021/11/29 07:05:59;;;;;;;;;;;;;;;20.55;37.84;101148.88;7280292;19;154302;-50
2021/11/29 07:08:26;;;;;;;;;;;;;;;20.58;37.94;101165.13;7281349;19;151743;-50
2021/11/29 07:10:52;;;;;;;;;;;;;;;20.59;37.73;101158.34;7283327;19;152527;-50
2021/11/29 07:13:19;;;;;;;;;;;;;;;20.61;37.92;101156.94;7282161;19;154659;-51
2021/11/29 07:15:46;;;;;;;;;;;;;;;20.63;37.50;101154.63;7291000;19;152344;-51
2021/11/29 07:18:13;;;;;;;;;;;;;;;20.66;38.00;101156.00;7282028;19;153971;-50
2021/11/29 07:20:40;;;;;;;;;;;;;;;20.69;37.75;101152.59;7282973;19;152065;-51
2021/11/29 07:23:07;;;;;;;;;;;;;;;20.65;36.76;101157.97;7280069;19;152958;-51
2021/11/29 07:25:34;;;;;;;;;;;;;;;20.69;36.85;101163.81;7281232;19;153303;-50
2021/11/29 07:28:01;;;;;;;;;;;;;;;20.72;37.09;101160.38;7282680;19;152159;-50
2021/11/29 07:30:28;;;;;;;;;;;;;;;20.74;36.62;101163.75;7281886;19;152680;-50
2021/11/29 07:32:55;;;;;;;;;;;;;;;20.75;36.89;101173.84;7278392;19;153112;-50
2021/11/29 07:35:24;;;;;;;;;;;;;;;20.74;36.81;101184.25;7291225;19;152187;-50
2021/11/29 07:37:52;;;;;;;;;;;;;;;20.77;36.48;101178.00;7282413;19;154031;-50
2021/11/29 07:40:19;;;;;;;;;;;;;;;20.78;36.69;101185.28;7282064;19;151822;-51
2021/11/29 07:42:46;;;;;;;;;;;;;;;20.79;36.64;101189.78;7279898;19;152585;-51
2021/11/29 07:45:12;;;;;;;;;;;;;;;20.77;36.28;101192.03;7281613;19;152720;-52
2021/11/29 07:47:40;;;;;;;;;;;;;;;20.77;35.72;101197.66;7281768;19;152212;-51
2021/11/29 07:50:10;;;;;;;;;;;;;;;20.74;35.69;101194.63;7282642;19;152632;-51
2021/11/29 07:52:36;;;;;;;;;;;;;;;20.72;34.87;101194.94;7280985;19;153870;-50
2021/11/29 07:55:07;;;;;;;;;;;;;;;20.69;34.94;101198.34;7282101;19;152199;-51
2021/11/29 07:57:34;;;;;;;;;;;;;;;20.70;34.79;101211.25;7288517;19;152076;-51
2021/11/29 08:00:05;;;;;;;;;;;;;;;20.68;34.66;101213.53;7280668;19;152572;-50
2021/11/29 08:02:32;;;;;;;;;;;;;;;20.69;35.31;101218.00;7279929;19;152414;-50
2021/11/29 08:04:59;;;;;;;;;;;;;;;20.69;34.55;101225.59;7279642;19;153678;-51
2021/11/29 08:07:27;;;;;;;;;;;;;;;20.67;34.17;101222.28;7280431;19;151696;-51
2021/11/29 08:09:53;;;;;;;;;;;;;;;20.66;34.05;101231.81;7280401;19;152844;-51
2021/11/29 08:12:24;;;;;;;;;;;;;;;20.65;34.08;101238.56;7281006;19;153331;-51
2021/11/29 08:14:54;;;;;;;;;;;;;;;20.66;34.12;101234.63;7282299;19;152406;-51
2021/11/29 08:17:21;;;;;;;;;;;;;;;20.65;33.84;101247.00;7281344;19;153903;-51
2021/11/29 08:19:48;;;;;;;;;;;;;;;20.64;34.11;101248.13;7290353;19;153813;-50
2021/11/29 08:22:14;;;;;;;;;;;;;;;20.61;33.98;101241.16;7286534;19;153247;-50
2021/11/29 08:24:41;;;;;;;;;;;;;;;20.65;33.93;101242.22;7285912;19;153007;-51
2021/11/29 08:27:08;;;;;;;;;;;;;;;20.62;33.83;101248.44;7288432;19;151956;-51
2021/11/29 08:29:35;;;;;;;;;;;;;;;20.68;34.16;101252.84;7286988;19;153300;-51
2021/11/29 08:32:02;;;;;;;;;;;;;;;20.31;31.79;101252.75;7287289;19;153753;-51
2021/11/29 08:34:29;;;;;;;;;;;;;;;20.42;32.49;101254.31;7286531;19;151594;-51
2021/11/29 08:36:56;;;;;;;;;;;;;;;20.45;32.65;101258.47;7286970;19;153343;-51
2021/11/29 08:39:22;;;;;;;;;;;;;;;20.44;32.38;101249.25;7286591;19;153297;-51
2021/11/29 08:41:49;;;;;;;;;;;;;;;20.46;32.82;101255.38;7292583;19;151990;-51
2021/11/29 08:44:16;;;;;;;;;;;;;;;20.44;32.33;101252.06;7285855;19;153762;-51
2021/11/29 08:46:48;;;;;;;;;;;;;;;20.45;32.65;101250.06;7287663;19;151924;-52
2021/11/29 08:49:15;;;;;;;;;;;;;;;20.45;32.87;101247.25;7287353;19;153578;-52
2021/11/29 08:51:42;;;;;;;;;;;;;;;20.46;32.63;101254.53;7285990;19;154043;-52
2021/11/29 08:54:10;;;;;;;;;;;;;;;20.46;32.65;101248.94;7286375;19;151916;-52
2021/11/29 08:56:37;;;;;;;;;;;;;;;20.47;32.62;101245.00;7285922;19;152567;-52
2021/11/29 08:59:04;;;;;;;;;;;;;;;20.47;32.69;101251.44;7286058;19;154278;-52
2021/11/29 09:01:30;;;;;;;;;;;;;;;20.48;33.00;101263.50;7285305;19;152245;-52
2021/11/29 09:06:36;;;;;;;;;;;;;;;20.47;32.89;101251.44;7281204;19;152077;-52
2021/11/29 09:09:03;;;;;;;;;;;;;;;20.48;32.81;101258.75;7285426;19;152750;-52
2021/11/29 09:11:30;;;;;;;;;;;;;;;20.48;33.12;101258.75;7278181;19;154361;-56
2021/11/29 09:13:57;;;;;;;;;;;;;;;20.48;32.77;101261.53;7280985;19;151716;-52
2021/11/29 09:16:25;;;;;;;;;;;;;;;20.52;33.12;101259.81;7283452;19;152637;-52
2021/11/29 09:18:52;;;;;;;;;;;;;;;20.51;32.91;101263.75;7283420;19;153994;-52
2021/11/29 09:21:19;;;;;;;;;;;;;;;20.52;32.90;101262.59;7284169;19;152500;-52
2021/11/29 09:23:46;;;;;;;;;;;;;;;20.53;32.55;101267.09;7277938;19;152013;-52
2021/11/29 09:26:14;;;;;;;;;;;;;;;20.54;32.57;101274.34;7288630;19;153628;-52
2021/11/29 09:28:41;;;;;;;;;;;;;;;20.54;32.51;101268.75;7283437;19;152184;-52
2021/11/29 09:31:08;;;;;;;;;;;;;;;20.56;33.10;101277.72;7277807;19;153982;-53
2021/11/29 09:33:37;;;;;;;;;;;;;;;20.55;32.90;101272.38;7281205;19;151983;-52
2021/11/29 09:36:04;;;;;;;;;;;;;;;20.56;32.55;101272.09;7284366;19;152650;-52
2021/11/29 09:38:32;;;;;;;;;;;;;;;20.57;32.55;101268.16;7280182;19;153357;-52
2021/11/29 09:40:59;;;;;;;;;;;;;;;20.56;32.64;101263.69;7283063;19;153223;-52
2021/11/29 09:43:26;;;;;;;;;;;;;;;20.58;32.85;101267.00;7279309;19;152851;-52
2021/11/29 09:45:53;;;;;;;;;;;;;;;20.60;32.34;101273.16;7287801;19;154152;-52
2021/11/29 09:48:21;;;;;;;;;;;;;;;20.60;32.72;101275.13;7281032;19;153504;-52
2021/11/29 09:50:54;;;;;;;;;;;;;;;20.61;32.56;101280.44;7282974;19;153912;-52
2021/11/29 09:53:22;;;;;;;;;;;;;;;20.59;32.57;101284.69;7280302;19;152098;-52
2021/11/29 09:55:49;;;;;;;;;;;;;;;20.63;32.46;101289.41;7281805;19;152615;-52
2021/11/29 09:58:16;;;;;;;;;;;;;;;20.64;32.84;101290.22;7280698;19;153605;-52
2021/11/29 10:00:46;;;;;;;;;;;;;;;20.65;32.67;101297.53;7281210;19;152892;-52
2021/11/29 10:03:13;;;;;;;;;;;;;;;20.66;32.59;101296.41;7280497;19;153324;-52
2021/11/29 10:05:40;;;;;;;;;;;;;;;20.65;32.39;101301.16;7278415;19;153897;-52
2021/11/29 10:08:11;;;;;;;;;;;;;;;20.64;32.27;101304.28;7289623;19;152373;-52
2021/11/29 10:10:44;;;;;;;;;;;;;;;20.66;32.36;101299.22;7281359;19;153712;-53
2021/11/29 10:13:11;;;;;;;;;;;;;;;20.66;32.68;101297.25;7281078;19;151983;-52
2021/11/29 10:15:41;;;;;;;;;;;;;;;20.64;32.71;101302.31;7283323;19;153565;-52
2021/11/29 10:18:10;;;;;;;;;;;;;;;20.62;32.31;101303.75;7280127;19;153422;-52
2021/11/29 10:20:40;;;;;;;;;;;;;;;20.59;32.62;101293.94;7282613;19;152284;-52
2021/11/29 10:23:08;;;;;;;;;;;;;;;20.58;32.70;101289.47;7281038;19;153984;-52
2021/11/29 10:25:41;;;;;;;;;;;;;;;20.56;32.17;101302.13;7282072;19;153504;-52
2021/11/29 10:28:21;;;;;;;;;;;;;;;20.56;32.53;101304.94;7279023;19;151815;-52
2021/11/29 10:31:03;;;;;;;;;;;;;;;20.53;32.36;101297.97;7288303;19;153649;-52
2021/11/29 10:33:31;;;;;;;;;;;;;;;20.51;32.40;101302.19;7280299;19;152127;-52
2021/11/29 10:36:00;;;;;;;;;;;;;;;20.48;32.18;101302.81;7279778;19;152060;-52
2021/11/29 10:38:28;;;;;;;;;;;;;;;20.42;32.14;101322.50;7280773;19;153267;-52
2021/11/29 10:40:56;;;;;;;;;;;;;;;20.38;32.43;101321.44;7282290;19;153137;-52
2021/11/29 10:43:35;;;;;;;;;;;;;;;20.35;32.30;101327.63;7277585;19;152122;-52
2021/11/29 10:46:15;;;;;;;;;;;;;;;20.30;32.18;101327.72;7277998;19;153318;-52
2021/11/29 10:48:42;;;;;;;;;;;;;;;20.26;32.58;101318.16;7279379;19;152045;-52
2021/11/29 10:51:10;;;;;;;;;;;;;;;20.21;32.55;101326.66;7281006;19;152677;-52
2021/11/29 10:53:40;;;;;;;;;;;;;;;20.18;32.61;101321.63;7286293;19;153558;-52
2021/11/29 10:56:06;;;;;;;;;;;;;;;20.16;32.40;101325.88;7280755;19;153287;-52
2021/11/29 10:58:36;;;;;;;;;;;;;;;20.11;32.73;101331.53;7280974;19;153440;-52
2021/11/29 11:01:03;;;;;;;;;;;;;;;20.07;32.80;101328.50;7280807;19;151993;-52
2021/11/29 11:03:47;;;;;;;;;;;;;;;20.01;32.79;101332.47;7281148;19;153199;-52
2021/11/29 11:06:14;;;;;;;;;;;;;;;19.98;32.43;101325.50;7275889;19;153911;-52
2021/11/29 11:08:40;;;;;;;;;;;;;;;19.94;32.86;101326.38;7280829;19;152764;-52
2021/11/29 11:11:27;;;;;;;;;;;;;;;19.89;32.55;101321.66;7281426;19;153007;-52
2021/11/29 11:13:58;;;;;;;;;;;;;;;19.86;32.61;101322.22;7279387;19;153720;-52
2021/11/29 11:16:27;;;;;;;;;;;;;;;19.82;33.06;101320.31;7288160;19;151988;-52
2021/11/29 11:18:54;;;;;;;;;;;;;;;19.78;32.74;101314.47;7279849;19;153658;-52
2021/11/29 11:21:21;;;;;;;;;;;;;;;19.74;33.18;101321.78;7278509;19;152179;-52
2021/11/29 11:23:47;;;;;;;;;;;;;;;19.73;32.67;101316.47;7279673;19;153709;-52
2021/11/29 11:26:17;;;;;;;;;;;;;;;19.70;33.12;101317.06;7278995;19;154213;-52
2021/11/29 11:28:44;;;;;;;;;;;;;;;19.64;33.13;101319.06;7281905;19;152049;-52
2021/11/29 11:31:13;;;;;;;;;;;;;;;19.61;33.06;101319.66;7278975;19;153044;-52
2021/11/29 11:33:43;;;;;;;;;;;;;;;19.56;32.81;101311.28;7280368;19;153351;-52
2021/11/29 11:36:10;;;;;;;;;;;;;;;19.52;32.95;101313.00;7278427;19;152051;-52
2021/11/29 11:38:37;;;;;;;;;;;;;;;19.47;33.00;101310.25;7285891;19;152368;-52
2021/11/29 11:41:03;;;;;;;;;;;;;;;19.42;33.03;101315.84;7279769;19;151844;-52
2021/11/29 11:43:30;;;;;;;;;;;;;;;19.39;33.12;101319.25;7279119;19;153875;-52
2021/11/29 11:45:57;;;;;;;;;;;;;;;19.35;33.00;101320.97;7277054;19;153748;-52
2021/11/29 11:48:24;;;;;;;;;;;;;;;19.31;33.46;101319.84;7280802;19;151777;-52
2021/11/29 11:50:52;;;;;;;;;;;;;;;19.26;33.44;101315.13;7279349;19;151948;-52
2021/11/29 11:53:19;;;;;;;;;;;;;;;19.22;33.54;101314.03;7278851;19;153369;-52
2021/11/29 11:55:48;;;;;;;;;;;;;;;19.19;33.47;101310.97;7285579;19;151929;-52
2021/11/29 11:58:18;;;;;;;;;;;;;;;19.15;33.31;101301.50;7292306;19;152767;-52
2021/11/29 12:00:50;;;;;;;;;;;;;;;19.12;33.72;101304.88;7284756;19;151639;-52
2021/11/29 12:03:18;;;;;;;;;;;;;;;19.06;33.46;101304.91;7283638;19;153020;-52
2021/11/29 12:05:47;;;;;;;;;;;;;;;19.00;33.91;101294.84;7283635;19;153326;-52
2021/11/29 12:08:32;;;;;;;;;;;;;;;18.97;33.80;101294.59;7285939;19;151921;-52
2021/11/29 12:10:59;;;;;;;;;;;;;;;18.93;33.73;101297.16;7284691;19;151979;-52
2021/11/29 12:13:26;;;;;;;;;;;;;;;18.89;34.05;101298.84;7284985;19;153613;-52
2021/11/29 12:15:56;;;;;;;;;;;;;;;18.86;34.07;101292.97;7283121;19;152301;-52
2021/11/29 12:18:25;;;;;;;;;;;;;;;18.82;33.97;101292.72;7286236;19;152601;-52
2021/11/29 12:20:55;;;;;;;;;;;;;;;18.80;34.08;101302.56;7289706;19;153771;-52
2021/11/29 12:23:25;;;;;;;;;;;;;;;18.74;33.90;101293.34;7284507;19;152920;-52
2021/11/29 12:25:51;;;;;;;;;;;;;;;18.71;33.98;101290.28;7284761;19;153361;-52
2021/11/29 12:28:21;;;;;;;;;;;;;;;18.65;33.64;101283.88;7287229;19;152001;-52
2021/11/29 12:30:49;;;;;;;;;;;;;;;18.62;34.04;101284.44;7285661;19;153188;-52
2021/11/29 12:33:17;;;;;;;;;;;;;;;18.60;33.93;101283.88;7283962;19;153937;-52